createdAt,value
2019-04-20T00:01:12.636Z,74.20
2019-04-20T00:03:41.745Z,74.30
2019-04-20T00:06:06.940Z,74.50
2019-04-20T00:08:36.522Z,74.50
2019-04-20T00:11:10.599Z,74.50
2019-04-20T00:13:43.835Z,74.70
2019-04-20T00:16:00.216Z,74.70
2019-04-20T00:18:34.500Z,74.70
2019-04-20T00:21:03.876Z,74.60
2019-04-20T00:23:33.725Z,74.70
2019-04-20T00:26:15.779Z,74.50
2019-04-20T00:28:52.249Z,74.50
2019-04-20T00:31:22.479Z,74.30
2019-04-20T00:33:43.568Z,74.20
2019-04-20T00:36:01.125Z,74.00
2019-04-20T00:38:35.158Z,73.90
2019-04-20T00:41:02.689Z,73.80
2019-04-20T00:43:31.090Z,73.80
2019-04-20T00:46:04.641Z,73.70
2019-04-20T00:48:33.770Z,73.70
2019-04-20T00:51:06.914Z,73.50
2019-04-20T00:53:30.367Z,73.50
2019-04-20T00:55:49.258Z,73.60
2019-04-20T00:58:23.386Z,72.90
2019-04-20T01:01:09.495Z,73.20
2019-04-20T01:03:32.412Z,72.40
2019-04-20T01:05:59.753Z,72.70
2019-04-20T01:08:29.622Z,73.00
2019-04-20T01:10:58.195Z,73.00
2019-04-20T01:13:26.877Z,72.70
2019-04-20T01:15:58.922Z,72.90
2019-04-20T01:18:22.802Z,72.80
2019-04-20T01:20:49.575Z,72.50
2019-04-20T01:23:20.760Z,71.80
2019-04-20T01:25:47.031Z,72.00
2019-04-20T01:28:35.503Z,71.80
2019-04-20T01:30:50.858Z,71.60
2019-04-20T01:33:26.039Z,71.70
2019-04-20T01:35:57.132Z,71.70
2019-04-20T01:38:27.487Z,71.70
2019-04-20T01:40:38.121Z,71.20
2019-04-20T01:43:05.728Z,71.10
2019-04-20T01:45:37.703Z,71.10
2019-04-20T01:48:03.431Z,70.90
2019-04-20T01:50:33.651Z,70.90
2019-04-20T01:53:09.962Z,70.70
2019-04-20T01:55:57.201Z,70.70
2019-04-20T01:58:24.717Z,70.40
2019-04-20T02:00:44.025Z,70.00
2019-04-20T02:03:36.250Z,70.60
2019-04-20T02:06:08.397Z,70.50
2019-04-20T02:08:33.025Z,70.20
2019-04-20T02:11:02.675Z,69.50
2019-04-20T02:13:38.582Z,68.80
2019-04-20T02:16:04.892Z,68.70
2019-04-20T02:18:37.484Z,68.70
2019-04-20T02:21:16.582Z,68.20
2019-04-20T02:23:33.809Z,67.30
2019-04-20T02:25:52.817Z,67.70
2019-04-20T02:28:37.414Z,67.60
2019-04-20T02:31:24.319Z,66.30
2019-04-20T02:34:07.331Z,66.40
2019-04-20T02:36:45.766Z,66.40
2019-04-20T02:41:44.257Z,65.80
2019-04-20T02:44:16.072Z,65.00
2019-04-20T02:46:45.317Z,64.70
2019-04-20T02:49:29.703Z,64.50
2019-04-20T02:51:42.182Z,64.20
2019-04-20T02:54:16.983Z,63.90
2019-04-20T02:56:45.374Z,63.50
2019-04-20T02:59:31.639Z,63.80
2019-04-20T03:01:27.724Z,63.70
2019-04-20T03:03:42.757Z,63.80
2019-04-20T03:06:17.876Z,63.40
2019-04-20T03:08:58.872Z,64.00
2019-04-20T03:11:22.506Z,64.20
2019-04-20T03:13:53.154Z,64.10
2019-04-20T03:16:16.692Z,64.30
2019-04-20T03:18:45.548Z,64.20
2019-04-20T03:21:17.718Z,64.70
2019-04-20T03:23:54.266Z,64.90
2019-04-20T03:26:29.367Z,64.40
2019-04-20T03:28:56.687Z,65.00
2019-04-20T03:32:03.771Z,65.70
2019-04-20T03:34:51.609Z,65.40
2019-04-20T03:36:42.884Z,66.00
2019-04-20T03:39:03.977Z,66.60
2019-04-20T03:41:22.444Z,66.90
2019-04-20T03:43:41.706Z,66.70
2019-04-20T03:46:12.754Z,65.70
2019-04-20T03:48:57.189Z,65.80
2019-04-20T03:51:37.423Z,66.70
2019-04-20T03:54:08.573Z,65.10
2019-04-20T03:56:39.030Z,64.90
2019-04-20T03:59:20.789Z,65.70
2019-04-20T04:04:49.628Z,66.70
2019-04-20T04:07:01.278Z,66.50
2019-04-20T04:09:35.439Z,66.50
2019-04-20T04:12:25.395Z,66.50
2019-04-20T04:14:45.095Z,65.90
2019-04-20T04:17:13.293Z,65.80
2019-04-20T04:19:52.435Z,64.20
2019-04-20T04:22:21.114Z,64.00
2019-04-20T04:24:54.272Z,62.10
2019-04-20T04:27:28.485Z,61.90
2019-04-20T04:29:51.219Z,62.10
2019-04-20T04:32:33.276Z,63.10
2019-04-20T04:34:48.668Z,62.80
2019-04-20T04:37:20.541Z,63.70
2019-04-20T04:39:48.503Z,63.70
2019-04-20T04:42:22.646Z,63.20
2019-04-20T04:44:41.734Z,64.00
2019-04-20T04:47:00.207Z,63.90
2019-04-20T04:49:32.027Z,64.00
2019-04-20T04:52:01.083Z,64.00
2019-04-20T04:54:33.994Z,64.30
2019-04-20T04:56:52.603Z,63.80
2019-04-20T04:59:19.673Z,64.10
2019-04-20T05:01:51.453Z,64.40
2019-04-20T05:04:44.064Z,64.70
2019-04-20T05:06:58.215Z,65.10
2019-04-20T05:09:16.758Z,65.60
2019-04-20T05:11:43.178Z,65.50
2019-04-20T05:14:16.835Z,66.10
2019-04-20T05:16:55.555Z,66.60
2019-04-20T05:19:31.195Z,67.20
2019-04-20T05:22:08.215Z,67.60
2019-04-20T05:24:28.843Z,67.50
2019-04-20T05:27:14.655Z,67.30
2019-04-20T05:29:24.905Z,67.60
2019-04-20T05:31:53.854Z,67.50
2019-04-20T05:34:38.760Z,67.80
2019-04-20T05:37:04.700Z,67.10
2019-04-20T05:39:52.747Z,67.40
2019-04-20T05:41:57.177Z,67.30
2019-04-20T05:44:25.571Z,67.70
2019-04-20T05:47:01.324Z,68.40
2019-04-20T05:49:25.807Z,68.50
2019-04-20T05:51:54.420Z,68.30
2019-04-20T05:54:26.774Z,68.50
2019-04-20T05:56:56.306Z,68.40
2019-04-20T05:59:23.836Z,68.20
2019-04-20T06:02:01.993Z,68.30
2019-04-20T06:04:30.217Z,68.60
2019-04-20T06:06:49.371Z,68.80
2019-04-20T06:09:22.979Z,69.00
2019-04-20T06:11:59.076Z,69.00
2019-04-20T06:14:10.409Z,69.10
2019-04-20T06:16:56.837Z,69.50
2019-04-20T06:19:25.828Z,68.80
2019-04-20T06:21:57.658Z,69.00
2019-04-20T06:24:29.304Z,69.00
2019-04-20T06:27:00.231Z,69.00
2019-04-20T06:29:23.638Z,69.30
2019-04-20T06:31:51.808Z,69.50
2019-04-20T06:39:48.767Z,68.60
2019-04-20T06:42:18.118Z,68.20
2019-04-20T06:44:32.129Z,67.40
2019-04-20T06:52:04.538Z,66.80
2019-04-20T06:54:33.865Z,67.00
2019-04-20T06:57:07.113Z,67.00
2019-04-20T06:59:38.728Z,67.20
2019-04-20T07:02:11.542Z,66.80
2019-04-20T07:04:50.705Z,67.30
2019-04-20T07:07:03.718Z,67.40
2019-04-20T07:09:39.644Z,67.50
2019-04-20T07:11:56.817Z,67.40
2019-04-20T07:14:11.388Z,67.50
2019-04-20T07:16:54.404Z,67.60
2019-04-20T07:19:25.336Z,68.00
2019-04-20T07:24:43.161Z,68.20
2019-04-20T07:27:08.078Z,67.90
2019-04-20T07:29:40.674Z,67.80
2019-04-20T07:31:57.633Z,68.00
2019-04-20T07:34:33.714Z,67.60
2019-04-20T07:37:28.249Z,67.70
2019-04-20T07:39:32.986Z,67.10
2019-04-20T07:42:08.143Z,67.70
2019-04-20T07:44:35.972Z,67.60
2019-04-20T07:49:24.689Z,67.80
2019-04-20T07:51:40.062Z,67.80
2019-04-20T07:54:31.146Z,67.50
2019-04-20T07:56:53.806Z,66.90
2019-04-20T07:59:13.030Z,66.90
2019-04-20T08:02:00.811Z,66.50
2019-04-20T08:04:27.314Z,66.00
2019-04-20T08:06:47.039Z,66.40
2019-04-20T08:09:21.989Z,66.00
2019-04-20T08:12:03.238Z,66.20
2019-04-20T08:14:35.085Z,66.40
2019-04-20T08:17:13.808Z,66.40
2019-04-20T08:19:22.754Z,66.10
2019-04-20T08:21:53.028Z,66.30
2019-04-20T08:24:17.597Z,65.00
2019-04-20T08:26:38.377Z,65.10
2019-04-20T08:29:09.168Z,64.90
2019-04-20T08:31:49.073Z,63.80
2019-04-20T08:34:43.919Z,62.60
2019-04-20T08:37:08.478Z,61.90
2019-04-20T08:39:45.992Z,62.20
2019-04-20T08:42:05.834Z,60.10
2019-04-20T08:44:56.638Z,60.40
2019-04-20T08:47:14.494Z,60.50
2019-04-20T08:49:34.817Z,60.40
2019-04-20T08:52:19.939Z,59.10
2019-04-20T08:54:27.290Z,59.20
2019-04-20T08:56:44.830Z,59.00
2019-04-20T08:59:06.846Z,59.00
2019-04-20T09:01:35.724Z,58.40
2019-04-20T09:04:11.266Z,59.00
2019-04-20T09:06:45.737Z,59.10
2019-04-20T09:09:31.840Z,58.30
2019-04-20T09:11:49.560Z,58.50
2019-04-20T09:14:01.867Z,58.20
2019-04-20T09:16:38.067Z,58.20
2019-04-20T09:19:03.596Z,57.60
2019-04-20T09:21:36.661Z,57.30
2019-04-20T09:24:22.814Z,56.60
2019-04-20T09:26:44.649Z,56.20
2019-04-20T09:29:04.096Z,57.60
2019-04-20T09:31:40.933Z,56.10
2019-04-20T09:34:16.109Z,55.00
2019-04-20T09:36:47.184Z,55.30
2019-04-20T09:39:15.017Z,55.20
2019-04-20T09:41:58.959Z,54.60
2019-04-20T09:44:07.233Z,54.20
2019-04-20T09:46:42.470Z,54.90
2019-04-20T09:49:15.691Z,54.80
2019-04-20T09:51:51.163Z,55.10
2019-04-20T09:54:21.983Z,55.50
2019-04-20T09:56:48.457Z,55.60
2019-04-20T09:59:16.643Z,55.20
2019-04-20T10:01:37.661Z,55.00
2019-04-20T10:03:57.075Z,54.60
2019-04-20T10:06:29.637Z,55.40
2019-04-20T10:08:56.816Z,55.00
2019-04-20T10:11:21.813Z,55.20
2019-04-20T10:13:49.901Z,55.10
2019-04-20T10:16:17.751Z,55.50
2019-04-20T10:18:48.806Z,55.40
2019-04-20T10:21:13.811Z,55.20
2019-04-20T10:23:40.988Z,55.60
2019-04-20T10:26:08.918Z,55.60
2019-04-20T10:28:37.263Z,55.00
2019-04-20T10:31:04.372Z,54.40
2019-04-20T10:33:31.432Z,54.20
2019-04-20T10:35:59.469Z,54.40
2019-04-20T10:38:33.993Z,54.00
2019-04-20T10:41:08.175Z,53.80
2019-04-20T10:43:28.154Z,54.20
2019-04-20T10:45:55.118Z,54.10
2019-04-20T10:48:23.407Z,54.40
2019-04-20T10:50:50.327Z,54.40
2019-04-20T10:53:17.577Z,54.60
2019-04-20T10:55:45.270Z,54.40
2019-04-20T10:58:13.508Z,53.70
2019-04-20T11:00:44.055Z,53.20
2019-04-20T11:03:13.592Z,54.50
2019-04-20T11:05:42.630Z,53.10
2019-04-20T11:08:10.798Z,53.70
2019-04-20T11:10:50.827Z,53.40
2019-04-20T11:13:09.625Z,54.00
2019-04-20T11:15:36.693Z,52.60
2019-04-20T11:18:04.278Z,52.40
2019-04-20T11:20:31.440Z,53.00
2019-04-20T11:22:58.228Z,53.30
2019-04-20T11:25:26.177Z,52.30
2019-04-20T11:27:54.253Z,53.00
2019-04-20T11:30:22.511Z,52.60
2019-04-20T11:32:49.846Z,51.90
2019-04-20T11:35:25.477Z,51.50
2019-04-20T11:37:47.045Z,52.00
2019-04-20T11:40:15.047Z,52.50
2019-04-20T11:42:41.946Z,51.10
2019-04-20T11:45:10.905Z,51.30
2019-04-20T11:47:39.694Z,50.80
2019-04-20T11:50:09.444Z,50.90
2019-04-20T11:52:42.242Z,50.70
2019-04-20T11:55:08.588Z,50.40
2019-04-20T11:57:35.625Z,50.60
2019-04-20T12:00:09.318Z,50.90
2019-04-20T12:02:57.242Z,50.50
2019-04-20T12:05:32.445Z,50.80
2019-04-20T12:07:58.580Z,50.30
2019-04-20T12:10:27.787Z,50.50
2019-04-20T12:12:55.700Z,49.90
2019-04-20T12:15:22.726Z,49.70
2019-04-20T12:17:49.575Z,48.80
2019-04-20T12:20:16.801Z,49.10
2019-04-20T12:22:44.269Z,49.10
2019-04-20T12:25:12.078Z,48.30
2019-04-20T12:27:42.019Z,48.00
2019-04-20T12:30:12.097Z,47.80
2019-04-20T12:32:42.862Z,45.80
2019-04-20T12:35:09.914Z,45.40
2019-04-20T12:37:36.932Z,46.50
2019-04-20T12:40:09.644Z,46.50
2019-04-20T12:42:37.084Z,45.70
2019-04-20T12:45:11.506Z,45.30
2019-04-20T12:47:39.633Z,44.60
2019-04-20T12:50:09.731Z,44.10
2019-04-20T12:52:36.801Z,44.60
2019-04-20T12:55:08.400Z,43.40
2019-04-20T12:57:36.528Z,41.90
2019-04-20T13:00:11.933Z,42.90
2019-04-20T13:02:39.191Z,43.70
2019-04-20T13:05:09.083Z,43.60
2019-04-20T13:07:44.390Z,43.20
2019-04-20T13:10:11.483Z,42.00
2019-04-20T13:12:58.458Z,41.70
2019-04-20T13:15:26.647Z,41.30
2019-04-20T13:17:54.271Z,41.40
2019-04-20T13:20:21.741Z,42.10
2019-04-20T13:22:48.801Z,41.10
2019-04-20T13:25:16.978Z,41.40
2019-04-20T13:27:45.049Z,41.30
2019-04-20T13:30:14.261Z,41.50
2019-04-20T13:32:41.608Z,39.70
2019-04-20T13:35:10.045Z,39.70
2019-04-20T13:37:39.975Z,39.00
2019-04-20T13:40:07.053Z,37.00
2019-04-20T13:42:35.210Z,37.50
2019-04-20T13:45:06.727Z,35.70
2019-04-20T13:47:34.935Z,36.80
2019-04-20T13:50:05.196Z,36.20
2019-04-20T13:52:33.070Z,35.30
2019-04-20T13:55:00.075Z,34.60
2019-04-20T13:57:46.129Z,36.00
2019-04-20T14:00:20.415Z,34.80
2019-04-20T14:02:49.400Z,35.80
2019-04-20T14:05:18.004Z,36.50
2019-04-20T14:07:45.201Z,36.30
2019-04-20T14:10:13.462Z,36.30
2019-04-20T14:12:54.776Z,35.70
2019-04-20T14:15:09.351Z,36.70
2019-04-20T14:17:37.222Z,36.50
2019-04-20T14:20:11.381Z,34.40
2019-04-20T14:22:33.950Z,35.30
2019-04-20T14:25:01.102Z,35.50
2019-04-20T14:27:28.863Z,36.20
2019-04-20T14:29:57.122Z,37.30
2019-04-20T14:32:25.013Z,35.20
2019-04-20T14:34:53.236Z,35.90
2019-04-20T14:37:23.135Z,34.00
2019-04-20T14:39:50.279Z,33.70
2019-04-20T14:42:26.925Z,34.20
2019-04-20T14:44:46.273Z,31.20
2019-04-20T14:47:13.880Z,32.40
2019-04-20T14:49:41.195Z,31.80
2019-04-20T14:52:08.269Z,31.90
2019-04-20T14:54:35.515Z,32.30
2019-04-20T14:57:03.415Z,32.90
2019-04-20T14:59:32.105Z,34.40
2019-04-20T15:02:03.707Z,35.70
2019-04-20T15:04:32.006Z,33.00
2019-04-20T15:07:00.187Z,32.00
2019-04-20T15:09:28.792Z,32.30
2019-04-20T15:11:56.951Z,33.00
2019-04-20T15:14:24.878Z,31.40
2019-04-20T15:16:52.887Z,31.10
2019-04-20T15:19:23.305Z,29.60
2019-04-20T15:21:55.713Z,29.90
2019-04-20T15:24:23.764Z,29.70
2019-04-20T15:26:52.088Z,29.90
2019-04-20T15:29:20.177Z,31.20
2019-04-20T15:31:48.171Z,29.70
2019-04-20T15:34:15.293Z,30.60
2019-04-20T15:36:42.308Z,29.80
2019-04-20T15:39:09.496Z,31.40
2019-04-20T15:41:36.676Z,30.50
2019-04-20T15:44:04.366Z,32.30
2019-04-20T15:46:32.727Z,32.70
2019-04-20T15:48:59.900Z,33.40
2019-04-20T15:51:27.974Z,34.40
2019-04-20T15:53:55.634Z,37.20
2019-04-20T15:56:22.788Z,37.30
2019-04-20T15:58:50.429Z,37.10
2019-04-20T16:01:20.661Z,37.60
2019-04-20T16:03:47.749Z,36.20
2019-04-20T16:06:14.558Z,35.10
2019-04-20T16:08:42.402Z,34.90
2019-04-20T16:11:11.125Z,34.50
2019-04-20T16:13:43.848Z,35.00
2019-04-20T16:16:07.848Z,35.50
2019-04-20T16:18:35.092Z,35.50
2019-04-20T16:21:07.944Z,36.30
2019-04-20T16:23:34.580Z,36.20
2019-04-20T16:26:11.149Z,36.80
2019-04-20T16:28:39.477Z,37.20
2019-04-20T16:31:08.723Z,38.20
2019-04-20T16:33:36.604Z,39.70
2019-04-20T16:36:04.769Z,38.40
2019-04-20T16:38:33.043Z,38.50
2019-04-20T16:41:00.455Z,39.10
2019-04-20T16:43:35.024Z,39.90
2019-04-20T16:45:57.096Z,41.50
2019-04-20T16:48:24.360Z,41.90
2019-04-20T16:50:51.199Z,42.00
2019-04-20T16:53:19.068Z,42.00
2019-04-20T16:55:46.232Z,42.30
2019-04-20T16:58:13.439Z,43.20
2019-04-20T17:00:41.240Z,43.00
2019-04-20T17:03:09.120Z,43.80
2019-04-20T17:05:37.026Z,43.90
2019-04-20T17:08:04.912Z,45.00
2019-04-20T17:10:33.213Z,47.40
2019-04-20T17:13:00.125Z,47.40
2019-04-20T17:15:27.679Z,46.10
2019-04-20T17:17:58.595Z,45.50
2019-04-20T17:20:27.282Z,46.10
2019-04-20T17:22:56.110Z,45.30
2019-04-20T17:25:23.981Z,45.40
2019-04-20T17:27:59.449Z,44.80
2019-04-20T17:30:29.449Z,46.00
2019-04-20T17:33:08.317Z,45.50
2019-04-20T17:35:47.811Z,45.70
2019-04-20T17:38:04.773Z,46.20
2019-04-20T17:40:51.212Z,46.90
2019-04-20T17:43:10.562Z,47.20
2019-04-20T17:45:41.974Z,47.20
2019-04-20T17:48:14.671Z,45.60
2019-04-20T17:50:46.436Z,46.30
2019-04-20T17:53:12.555Z,45.90
2019-04-20T17:55:40.953Z,46.20
2019-04-20T17:58:05.667Z,45.50
2019-04-20T18:00:53.197Z,46.00
2019-04-20T18:04:00.323Z,45.20
2019-04-20T18:06:14.570Z,46.00
2019-04-20T18:08:44.028Z,46.10
2019-04-20T18:10:59.827Z,45.80
2019-04-20T18:13:23.623Z,45.80
2019-04-20T18:16:04.660Z,46.40
2019-04-20T18:18:35.317Z,46.00
2019-04-20T18:21:06.364Z,46.50
2019-04-20T18:23:38.504Z,46.90
2019-04-20T18:26:25.918Z,47.20
2019-04-20T18:28:55.740Z,47.20
2019-04-20T18:31:15.372Z,47.40
2019-04-20T18:33:44.511Z,47.80
2019-04-20T18:36:19.610Z,47.80
2019-04-20T18:38:51.504Z,48.50
2019-04-20T18:41:24.410Z,48.60
2019-04-20T18:43:45.825Z,48.50
2019-04-20T18:46:21.712Z,48.60
2019-04-20T18:48:57.019Z,48.70
2019-04-20T18:51:04.116Z,48.60
2019-04-20T18:53:38.749Z,49.00
2019-04-20T18:56:02.663Z,48.80
2019-04-20T18:58:28.973Z,48.70
2019-04-20T19:00:57.095Z,48.60
2019-04-20T19:03:31.173Z,48.50
2019-04-20T19:05:53.687Z,48.20
2019-04-20T19:08:32.389Z,48.40
2019-04-20T19:10:57.879Z,48.60
2019-04-20T19:13:36.323Z,49.50
2019-04-20T19:16:15.196Z,49.80
2019-04-20T19:19:00.578Z,50.30
2019-04-20T19:21:17.627Z,50.90
2019-04-20T19:23:54.872Z,51.60
2019-04-20T19:26:19.140Z,53.80
2019-04-20T19:28:49.406Z,57.50
2019-04-20T19:31:25.289Z,61.10
2019-04-20T19:34:00.503Z,61.80
2019-04-20T19:36:19.872Z,64.20
2019-04-20T19:38:52.374Z,66.80
2019-04-20T19:41:22.545Z,64.50
2019-04-20T19:43:48.349Z,64.60
2019-04-20T19:46:39.271Z,64.70
2019-04-20T19:48:45.146Z,64.10
2019-04-20T19:51:25.497Z,64.50
2019-04-20T19:53:53.122Z,64.20
2019-04-20T19:56:10.664Z,65.60
2019-04-20T19:58:39.710Z,66.00
2019-04-20T20:01:01.149Z,65.20
2019-04-20T20:03:27.943Z,62.30
2019-04-20T20:05:56.499Z,62.20
2019-04-20T20:08:27.816Z,61.70
2019-04-20T20:10:52.733Z,59.80
2019-04-20T20:13:20.466Z,58.50
2019-04-20T20:15:49.084Z,57.90
2019-04-20T20:18:33.200Z,57.40
2019-04-20T20:20:59.582Z,58.00
2019-04-20T20:23:14.453Z,58.30
2019-04-20T20:25:45.922Z,59.90
2019-04-20T20:28:20.263Z,60.90
2019-04-20T20:30:55.592Z,61.10
2019-04-20T20:33:27.904Z,59.80
2019-04-20T20:35:49.163Z,60.10
2019-04-20T20:38:18.111Z,59.20
2019-04-20T20:40:43.515Z,58.30
2019-04-20T20:43:14.836Z,58.60
2019-04-20T20:45:41.691Z,58.00
2019-04-20T20:48:22.787Z,58.20
2019-04-20T20:50:50.916Z,58.20
2019-04-20T20:53:13.496Z,57.10
2019-04-20T20:55:37.068Z,57.50
2019-04-20T20:58:08.529Z,57.60
2019-04-20T21:00:37.264Z,58.20
2019-04-20T21:03:02.566Z,56.80
2019-04-20T21:05:25.330Z,57.10
2019-04-20T21:07:53.324Z,58.40
2019-04-20T21:10:28.109Z,58.80
2019-04-20T21:12:55.497Z,58.70
2019-04-20T21:15:22.542Z,60.10
2019-04-20T21:18:09.502Z,60.70
2019-04-20T21:20:39.513Z,61.50
2019-04-20T21:23:03.922Z,61.60
2019-04-20T21:25:37.763Z,62.80
2019-04-20T21:28:02.567Z,62.90
2019-04-20T21:30:35.058Z,63.40
2019-04-20T21:33:03.831Z,63.40
2019-04-20T21:35:38.202Z,63.90
2019-04-20T21:38:06.190Z,63.90
2019-04-20T21:40:36.224Z,64.80
2019-04-20T21:43:02.318Z,64.30
2019-04-20T21:45:31.148Z,65.10
2019-04-20T21:47:56.598Z,64.90
2019-04-20T21:50:37.040Z,64.50
2019-04-20T21:52:58.603Z,65.10
2019-04-20T21:55:21.794Z,64.80
2019-04-20T21:57:53.244Z,64.70
2019-04-20T22:00:42.634Z,64.60
2019-04-20T22:03:10.932Z,64.10
2019-04-20T22:05:35.928Z,64.00
2019-04-20T22:08:07.839Z,63.90
2019-04-20T22:10:32.956Z,63.80
2019-04-20T22:13:01.413Z,63.70
2019-04-20T22:15:33.239Z,63.60
2019-04-20T22:18:05.141Z,63.50
2019-04-20T22:20:35.156Z,63.20
2019-04-20T22:23:06.596Z,62.80
2019-04-20T22:25:42.565Z,63.10
2019-04-20T22:27:55.657Z,63.30
2019-04-20T22:30:22.152Z,62.50
2019-04-20T22:32:51.830Z,62.70
2019-04-20T22:35:19.602Z,62.50
2019-04-20T22:37:59.780Z,62.30
2019-04-20T22:40:31.577Z,61.70
2019-04-20T22:42:58.539Z,61.30
2019-04-20T22:45:25.318Z,61.50
2019-04-20T22:47:59.388Z,62.30
2019-04-20T22:50:34.220Z,62.30
2019-04-20T22:52:58.079Z,62.70
2019-04-20T22:55:42.722Z,63.30
2019-04-20T22:57:59.130Z,63.30
2019-04-20T23:00:29.067Z,63.60
2019-04-20T23:02:46.946Z,63.80
2019-04-20T23:05:15.163Z,64.30
2019-04-20T23:07:42.045Z,64.70
2019-04-20T23:10:09.433Z,64.90
2019-04-20T23:12:41.126Z,64.40
2019-04-20T23:15:08.202Z,65.00
2019-04-20T23:17:40.025Z,65.20
2019-04-20T23:20:13.177Z,64.70
2019-04-20T23:22:40.149Z,64.20
2019-04-20T23:25:05.072Z,64.20
2019-04-20T23:27:34.940Z,64.10
2019-04-20T23:30:05.895Z,64.30
2019-04-20T23:32:30.314Z,64.50
2019-04-20T23:35:06.606Z,65.20
2019-04-20T23:37:32.088Z,64.70
2019-04-20T23:39:57.933Z,64.60
2019-04-20T23:42:27.936Z,65.50
2019-04-20T23:45:00.097Z,65.50
2019-04-20T23:47:30.064Z,64.90
2019-04-20T23:50:15.177Z,64.70
2019-04-20T23:52:49.655Z,64.40
2019-04-20T23:55:04.980Z,64.00
2019-04-20T23:57:27.816Z,63.90
2019-04-20T23:59:55.059Z,63.90
